Aviation Digital Data Service (ADDS)

Output produced by METARs form (0605 UTC 19 August 2019)
found at http://www.aviationweather.gov/metar/data/
 
Forecast for: COR
Text: TAF COR ZYHB 190432Z 1906/2006 32003MPS 6000 BKN023 TX22/1906Z TN14/1921Z
Forecast period: 0600 UTC 19 August 2019 to 0600 UTC 20 August 2019
Forecast type: FROM: standard forecast or significant change
Winds: from the NW (320 degrees) at 7 MPH (6 knots; 3.1 m/s)
Visibility: 4 miles (6 km)
Ceiling: 2300 feet AGL
Clouds: broken clouds at 2300 feet AGL
Weather: no significant weather forecast for this period
Text: TEMPO 1906/1912 FEW010CB SCT020 BKN026
Forecast period: 0600 to 1200 UTC 19 August 2019
Forecast type: TEMPORARY: The following changes expected for less than half the time period
Visibility: missing
Ceiling: 2600 feet AGL
Clouds: few clouds at 1000 feet AGL
scattered clouds at 2000 feet AGL
broken clouds at 2600 feet AGL
Weather: no significant weather forecast for this period